Chie Maru No.10 — JD2376 — position and weather

sailwx.info

Track history (hours):
 
Tides and Currents Weather Stations Pressure Air Temp Water Temp Dewpoint Dewpoint Depression Visibility Wind Speed Wind Dir Waves Ship Positions

Chie Maru No.10

Last reported at 2016-Aug-29 19:33 UTC. Time now 2016-Aug-29 19:58 UTC.
Position N 35°35' E 139°56'.

Length 72 m; draft 3.8 m.

Type: Ship. MMSI: 431000147.

Date/timePositionNaut miles runAvg speedWind from/ knotsBaromVisibWave heightAir tempDewpointWater temp
2016-Aug-29 19:33N 35°35' E 139°56'0 0.0
2016-Aug-29 18:28N 35°35' E 139°56'0 0.0
2016-Aug-29 17:32N 35°35' E 139°56'0 0.0
2016-Aug-29 16:32N 35°35' E 139°56'0 0.1
2016-Aug-29 15:33N 35°35' E 139°56'0 0.0
2016-Aug-29 14:34N 35°35' E 139°56'0 0.0
2016-Aug-29 13:33N 35°35' E 139°56'0 0.0
2016-Aug-29 12:31N 35°35' E 139°56'0 0.0
2016-Aug-29 11:34N 35°35' E 139°56'0 0.0
2016-Aug-29 10:31N 35°35' E 139°56'0 0.0
2016-Aug-29 09:31N 35°35' E 139°56'0 0.0
2016-Aug-29 08:25N 35°35' E 139°56'0 0.0
2016-Aug-29 07:31N 35°35' E 139°56'0 0.0
2016-Aug-29 06:31N 35°35' E 139°56'0 0.0
2016-Aug-29 05:31N 35°35' E 139°56'0 0.0
2016-Aug-29 04:31N 35°35' E 139°56'0 0.0
2016-Aug-29 03:31N 35°35' E 139°56'0 0.1
2016-Aug-29 02:32N 35°35' E 139°56'8 8.4
2016-Aug-29 01:33N 35°28' E 139°50'6 5.5
2016-Aug-29 00:30N 35°24' E 139°45'5 4.9
2016-Aug-28 23:33N 35°25' E 139°39'3 2.6
2016-Aug-28 22:33N 35°24' E 139°43'1212.2
2016-Aug-28 21:34N 35°33' E 139°53'2 2.4
2016-Aug-28 20:31N 35°35' E 139°55'0 0.0
2016-Aug-28 19:22N 35°35' E 139°55'0 0.0
2016-Aug-28 18:28N 35°35' E 139°55'0 0.0
2016-Aug-28 17:28N 35°35' E 139°55'0 0.0
2016-Aug-28 16:31N 35°35' E 139°55'0 0.0
2016-Aug-28 15:31N 35°35' E 139°55'0 0.0
2016-Aug-28 14:31N 35°35' E 139°55'0 0.0
2016-Aug-28 13:28N 35°35' E 139°55'0 0.0
2016-Aug-28 12:31N 35°35' E 139°55'0 0.0
2016-Aug-28 11:31N 35°35' E 139°55'0 0.0
2016-Aug-28 10:28N 35°35' E 139°55'0 0.0
2016-Aug-28 09:25N 35°35' E 139°55'0 0.0
2016-Aug-28 08:28N 35°35' E 139°55'0 0.0
2016-Aug-28 07:28N 35°35' E 139°55'0 0.0
2016-Aug-28 06:28N 35°35' E 139°55'0 0.0
2016-Aug-28 05:31N 35°35' E 139°55'0 0.0
2016-Aug-28 04:22N 35°35' E 139°55'0 0.0
2016-Aug-28 03:22N 35°35' E 139°55'0 0.0
2016-Aug-28 02:28N 35°35' E 139°55'5 5.6
2016-Aug-28 01:33N 35°39' E 139°58'1 1.4
2016-Aug-28 00:33N 35°41' E 139°56'0 0.0
2016-Aug-27 23:33N 35°41' E 139°56'0 0.0
2016-Aug-27 22:33N 35°41' E 139°56'5 5.5
2016-Aug-27 21:34N 35°35' E 139°56'1 1.1
2016-Aug-27 20:33N 35°34' E 139°55'0 0.0
2016-Aug-27 19:33N 35°34' E 139°55'0 0.0
2016-Aug-27 18:33N 35°34' E 139°55'0 0.0
2016-Aug-27 17:33N 35°34' E 139°55'0 0.0
2016-Aug-27 16:33N 35°34' E 139°55'0 0.0
2016-Aug-27 15:33N 35°34' E 139°55'0 0.0
2016-Aug-27 14:33N 35°34' E 139°55'8 8.0
2016-Aug-27 13:33N 35°31' E 139°46'1 0.8
2016-Aug-27 12:33N 35°31' E 139°46'0 0.0
2016-Aug-27 11:33N 35°31' E 139°46'0 0.0
2016-Aug-27 10:33N 35°31' E 139°46'0 0.0
2016-Aug-27 09:33N 35°31' E 139°46'0 0.0
2016-Aug-27 08:34N 35°31' E 139°46'0 0.0
2016-Aug-27 07:33N 35°31' E 139°46'0 0.0
2016-Aug-27 06:33N 35°31' E 139°46'10 5.0
2016-Aug-27 04:33N 35°36' E 139°57'4 4.5
2016-Aug-27 03:33N 35°41' E 139°56'0 0.0
2016-Aug-27 02:33N 35°41' E 139°56'0 0.0
2016-Aug-27 01:33N 35°41' E 139°56'0 0.0
2016-Aug-27 00:33N 35°41' E 139°56'1 0.7
2016-Aug-26 23:33N 35°40' E 139°57'10 9.6
2016-Aug-26 22:33N 35°31' E 139°53'1211.8
2016-Aug-26 21:33N 35°21' E 139°45'1110.7
2016-Aug-26 20:33N 35°11' E 139°46'245 9.8
2016-Aug-25 19:33N 34°07' E 134°59'1311.9
2016-Aug-25 18:29N 34°19' E 134°59'1111.4
2016-Aug-25 17:33N 34°30' E 135°02'9 0.5
2016-Aug-25 00:06N 34°36' E 134°55'610.0
2016-Aug-24 23:27N 34°37' E 135°03'9 9.4
2016-Aug-24 22:28N 34°27' E 135°04'1111.7
2016-Aug-24 21:32N 34°17' E 134°59'230 7.4
2016-Aug-23 14:33N 35°03' E 139°34'1211.7
2016-Aug-23 13:33N 35°10' E 139°45'1211.7
2016-Aug-23 12:33N 35°22' E 139°42'10 9.8
2016-Aug-23 11:33N 35°31' E 139°46'0 0.2
2016-Aug-23 10:33N 35°31' E 139°46'0 0.0
2016-Aug-23 09:33N 35°31' E 139°46'0 0.0
2016-Aug-23 08:33N 35°31' E 139°46'0 0.0
2016-Aug-23 07:33N 35°31' E 139°46'0 0.0
2016-Aug-23 06:33N 35°31' E 139°46'0 0.4
2016-Aug-23 05:33N 35°31' E 139°46'3 2.6
2016-Aug-23 04:31N 35°29' E 139°49'5 5.2
2016-Aug-23 03:33N 35°26' E 139°43'3 2.9
2016-Aug-23 02:33N 35°28' E 139°40'0 0.0
2016-Aug-23 01:33N 35°28' E 139°40'0 0.0
2016-Aug-23 00:33N 35°28' E 139°40'0 0.0
2016-Aug-22 23:33N 35°28' E 139°40'3 3.4
2016-Aug-22 22:33N 35°26' E 139°43'2 2.5
2016-Aug-22 21:34N 35°24' E 139°45'0 0.0
2016-Aug-22 20:34N 35°24' E 139°45'0 0.0
2016-Aug-22 19:34N 35°24' E 139°45'0 0.0
2016-Aug-22 18:34N 35°24' E 139°45'0 0.0
2016-Aug-22 17:31N 35°24' E 139°45'0 0.0
2016-Aug-22 16:34N 35°24' E 139°45'0 0.1
2016-Aug-22 15:34N 35°24' E 139°45'0 0.0
2016-Aug-22 14:34N 35°24' E 139°45'0 0.0
2016-Aug-22 13:34N 35°24' E 139°45'0 0.0
2016-Aug-22 12:33N 35°24' E 139°45'0 0.0
2016-Aug-22 11:31N 35°24' E 139°45'0 0.0
2016-Aug-22 10:31N 35°24' E 139°45'0 0.0
2016-Aug-22 09:32N 35°24' E 139°45'0 0.0
2016-Aug-22 08:33N 35°24' E 139°45'0 0.0
2016-Aug-22 07:33N 35°24' E 139°45'0 0.0
2016-Aug-22 06:34N 35°24' E 139°45'0 0.1
2016-Aug-22 05:33N 35°24' E 139°45'0 0.2
2016-Aug-22 04:34N 35°24' E 139°45'0 0.1
2016-Aug-22 03:33N 35°24' E 139°45'0 0.0
2016-Aug-22 02:33N 35°24' E 139°45'0 0.0
2016-Aug-22 01:33N 35°24' E 139°45'0 0.0
2016-Aug-22 00:32N 35°24' E 139°45'0 0.0
2016-Aug-21 23:33N 35°24' E 139°45'0 0.0
2016-Aug-21 22:33N 35°24' E 139°45'0 0.0
2016-Aug-21 21:33N 35°24' E 139°45'0 0.1
2016-Aug-21 20:32N 35°24' E 139°45'0 0.0
2016-Aug-21 19:33N 35°24' E 139°45'0 0.0
2016-Aug-21 18:31N 35°24' E 139°45'0 0.0
2016-Aug-21 17:33N 35°24' E 139°45'0 0.0
2016-Aug-21 16:33N 35°24' E 139°45'0 0.0
2016-Aug-21 15:32N 35°24' E 139°45'0 0.0
2016-Aug-21 14:33N 35°24' E 139°45'0 0.0
2016-Aug-21 13:32N 35°24' E 139°45'0 0.0
2016-Aug-21 12:32N 35°24' E 139°45'0 0.0
2016-Aug-21 11:32N 35°24' E 139°45'0 0.0
2016-Aug-21 10:29N 35°24' E 139°45'0 0.0
2016-Aug-21 09:32N 35°24' E 139°45'0 0.3
2016-Aug-21 08:33N 35°24' E 139°44'1111.2
2016-Aug-21 07:33N 35°12' E 139°47'59 7.2
2016-Aug-20 23:27N 35°36' E 140°52'1110.5
2016-Aug-20 22:25N 35°47' E 140°54'1012.0
2016-Aug-20 21:33N 35°55' E 140°46'4 1.8
2016-Aug-20 19:33N 35°57' E 140°42'0 0.0
2016-Aug-20 18:21N 35°57' E 140°42'0 0.0
2016-Aug-20 17:27N 35°57' E 140°42'0 0.0
2016-Aug-20 16:27N 35°57' E 140°42'0 0.0
2016-Aug-20 15:24N 35°57' E 140°42'0 0.0
2016-Aug-20 14:06N 35°57' E 140°42'0 0.0
2016-Aug-20 13:27N 35°57' E 140°42'0 0.0
2016-Aug-20 12:30N 35°57' E 140°42'0 0.0
2016-Aug-20 09:33N 35°57' E 140°42'0 0.0
2016-Aug-20 08:12N 35°57' E 140°42'0 0.0
2016-Aug-20 07:30N 35°57' E 140°42'2 0.5
2016-Aug-20 04:34N 35°55' E 140°42'1 0.3
2016-Aug-20 00:30N 35°55' E 140°41'0 0.0
2016-Aug-19 23:10N 35°55' E 140°41'3 4.2
2016-Aug-19 22:33N 35°57' E 140°42'0 0.3
2016-Aug-19 21:28N 35°57' E 140°42'  
Track history (hours):
 
Tides and Currents Weather Stations Pressure Air Temp Water Temp Dewpoint Dewpoint Depression Visibility Wind Speed Wind Dir Waves Ship Positions

Chie Maru No.10

Last reported at 2016-Aug-29 19:33 UTC. Time now 2016-Aug-29 19:58 UTC.
Position N 35°35' E 139°56'.

Length 72 m; draft 3.8 m.

Type: Ship. MMSI: 431000147.

Date/timePositionNaut miles runAvg speedWind from/ knotsBaromVisibWave heightAir tempDewpointWater temp
2016-Aug-29 19:33N 35°35' E 139°56'0 0.0
2016-Aug-29 18:28N 35°35' E 139°56'0 0.0
2016-Aug-29 17:32N 35°35' E 139°56'0 0.0
2016-Aug-29 16:32N 35°35' E 139°56'0 0.1
2016-Aug-29 15:33N 35°35' E 139°56'0 0.0
2016-Aug-29 14:34N 35°35' E 139°56'0 0.0
2016-Aug-29 13:33N 35°35' E 139°56'0 0.0
2016-Aug-29 12:31N 35°35' E 139°56'0 0.0
2016-Aug-29 11:34N 35°35' E 139°56'0 0.0
2016-Aug-29 10:31N 35°35' E 139°56'0 0.0
2016-Aug-29 09:31N 35°35' E 139°56'0 0.0
2016-Aug-29 08:25N 35°35' E 139°56'0 0.0
2016-Aug-29 07:31N 35°35' E 139°56'0 0.0
2016-Aug-29 06:31N 35°35' E 139°56'0 0.0
2016-Aug-29 05:31N 35°35' E 139°56'0 0.0
2016-Aug-29 04:31N 35°35' E 139°56'0 0.0
2016-Aug-29 03:31N 35°35' E 139°56'0 0.1
2016-Aug-29 02:32N 35°35' E 139°56'8 8.4
2016-Aug-29 01:33N 35°28' E 139°50'6 5.5
2016-Aug-29 00:30N 35°24' E 139°45'5 4.9
2016-Aug-28 23:33N 35°25' E 139°39'3 2.6
2016-Aug-28 22:33N 35°24' E 139°43'1212.2
2016-Aug-28 21:34N 35°33' E 139°53'2 2.4
2016-Aug-28 20:31N 35°35' E 139°55'0 0.0
2016-Aug-28 19:22N 35°35' E 139°55'0 0.0
2016-Aug-28 18:28N 35°35' E 139°55'0 0.0
2016-Aug-28 17:28N 35°35' E 139°55'0 0.0
2016-Aug-28 16:31N 35°35' E 139°55'0 0.0
2016-Aug-28 15:31N 35°35' E 139°55'0 0.0
2016-Aug-28 14:31N 35°35' E 139°55'0 0.0
2016-Aug-28 13:28N 35°35' E 139°55'0 0.0
2016-Aug-28 12:31N 35°35' E 139°55'0 0.0
2016-Aug-28 11:31N 35°35' E 139°55'0 0.0
2016-Aug-28 10:28N 35°35' E 139°55'0 0.0
2016-Aug-28 09:25N 35°35' E 139°55'0 0.0
2016-Aug-28 08:28N 35°35' E 139°55'0 0.0
2016-Aug-28 07:28N 35°35' E 139°55'0 0.0
2016-Aug-28 06:28N 35°35' E 139°55'0 0.0
2016-Aug-28 05:31N 35°35' E 139°55'0 0.0
2016-Aug-28 04:22N 35°35' E 139°55'0 0.0
2016-Aug-28 03:22N 35°35' E 139°55'0 0.0
2016-Aug-28 02:28N 35°35' E 139°55'5 5.6
2016-Aug-28 01:33N 35°39' E 139°58'1 1.4
2016-Aug-28 00:33N 35°41' E 139°56'0 0.0
2016-Aug-27 23:33N 35°41' E 139°56'0 0.0
2016-Aug-27 22:33N 35°41' E 139°56'5 5.5
2016-Aug-27 21:34N 35°35' E 139°56'1 1.1
2016-Aug-27 20:33N 35°34' E 139°55'0 0.0
2016-Aug-27 19:33N 35°34' E 139°55'0 0.0
2016-Aug-27 18:33N 35°34' E 139°55'0 0.0
2016-Aug-27 17:33N 35°34' E 139°55'0 0.0
2016-Aug-27 16:33N 35°34' E 139°55'0 0.0
2016-Aug-27 15:33N 35°34' E 139°55'0 0.0
2016-Aug-27 14:33N 35°34' E 139°55'8 8.0
2016-Aug-27 13:33N 35°31' E 139°46'1 0.8
2016-Aug-27 12:33N 35°31' E 139°46'0 0.0
2016-Aug-27 11:33N 35°31' E 139°46'0 0.0
2016-Aug-27 10:33N 35°31' E 139°46'0 0.0
2016-Aug-27 09:33N 35°31' E 139°46'0 0.0
2016-Aug-27 08:34N 35°31' E 139°46'0 0.0
2016-Aug-27 07:33N 35°31' E 139°46'0 0.0
2016-Aug-27 06:33N 35°31' E 139°46'10 5.0
2016-Aug-27 04:33N 35°36' E 139°57'4 4.5
2016-Aug-27 03:33N 35°41' E 139°56'0 0.0
2016-Aug-27 02:33N 35°41' E 139°56'0 0.0
2016-Aug-27 01:33N 35°41' E 139°56'0 0.0
2016-Aug-27 00:33N 35°41' E 139°56'1 0.7
2016-Aug-26 23:33N 35°40' E 139°57'10 9.6
2016-Aug-26 22:33N 35°31' E 139°53'1211.8
2016-Aug-26 21:33N 35°21' E 139°45'1110.7
2016-Aug-26 20:33N 35°11' E 139°46'245 9.8
2016-Aug-25 19:33N 34°07' E 134°59'1311.9
2016-Aug-25 18:29N 34°19' E 134°59'1111.4
2016-Aug-25 17:33N 34°30' E 135°02'9 0.5
2016-Aug-25 00:06N 34°36' E 134°55'610.0
2016-Aug-24 23:27N 34°37' E 135°03'9 9.4
2016-Aug-24 22:28N 34°27' E 135°04'1111.7
2016-Aug-24 21:32N 34°17' E 134°59'230 7.4
2016-Aug-23 14:33N 35°03' E 139°34'1211.7
2016-Aug-23 13:33N 35°10' E 139°45'1211.7
2016-Aug-23 12:33N 35°22' E 139°42'10 9.8
2016-Aug-23 11:33N 35°31' E 139°46'0 0.2
2016-Aug-23 10:33N 35°31' E 139°46'0 0.0
2016-Aug-23 09:33N 35°31' E 139°46'0 0.0
2016-Aug-23 08:33N 35°31' E 139°46'0 0.0
2016-Aug-23 07:33N 35°31' E 139°46'0 0.0
2016-Aug-23 06:33N 35°31' E 139°46'0 0.4
2016-Aug-23 05:33N 35°31' E 139°46'3 2.6
2016-Aug-23 04:31N 35°29' E 139°49'5 5.2
2016-Aug-23 03:33N 35°26' E 139°43'3 2.9
2016-Aug-23 02:33N 35°28' E 139°40'0 0.0
2016-Aug-23 01:33N 35°28' E 139°40'0 0.0
2016-Aug-23 00:33N 35°28' E 139°40'0 0.0
2016-Aug-22 23:33N 35°28' E 139°40'3 3.4
2016-Aug-22 22:33N 35°26' E 139°43'2 2.5
2016-Aug-22 21:34N 35°24' E 139°45'0 0.0
2016-Aug-22 20:34N 35°24' E 139°45'0 0.0
2016-Aug-22 19:34N 35°24' E 139°45'0 0.0
2016-Aug-22 18:34N 35°24' E 139°45'0 0.0
2016-Aug-22 17:31N 35°24' E 139°45'0 0.0
2016-Aug-22 16:34N 35°24' E 139°45'0 0.1
2016-Aug-22 15:34N 35°24' E 139°45'0 0.0
2016-Aug-22 14:34N 35°24' E 139°45'0 0.0
2016-Aug-22 13:34N 35°24' E 139°45'0 0.0
2016-Aug-22 12:33N 35°24' E 139°45'0 0.0
2016-Aug-22 11:31N 35°24' E 139°45'0 0.0
2016-Aug-22 10:31N 35°24' E 139°45'0 0.0
2016-Aug-22 09:32N 35°24' E 139°45'0 0.0
2016-Aug-22 08:33N 35°24' E 139°45'0 0.0
2016-Aug-22 07:33N 35°24' E 139°45'0 0.0
2016-Aug-22 06:34N 35°24' E 139°45'0 0.1
2016-Aug-22 05:33N 35°24' E 139°45'0 0.2
2016-Aug-22 04:34N 35°24' E 139°45'0 0.1
2016-Aug-22 03:33N 35°24' E 139°45'0 0.0
2016-Aug-22 02:33N 35°24' E 139°45'0 0.0
2016-Aug-22 01:33N 35°24' E 139°45'0 0.0
2016-Aug-22 00:32N 35°24' E 139°45'0 0.0
2016-Aug-21 23:33N 35°24' E 139°45'0 0.0
2016-Aug-21 22:33N 35°24' E 139°45'0 0.0
2016-Aug-21 21:33N 35°24' E 139°45'0 0.1
2016-Aug-21 20:32N 35°24' E 139°45'0 0.0
2016-Aug-21 19:33N 35°24' E 139°45'0 0.0
2016-Aug-21 18:31N 35°24' E 139°45'0 0.0
2016-Aug-21 17:33N 35°24' E 139°45'0 0.0
2016-Aug-21 16:33N 35°24' E 139°45'0 0.0
2016-Aug-21 15:32N 35°24' E 139°45'0 0.0
2016-Aug-21 14:33N 35°24' E 139°45'0 0.0
2016-Aug-21 13:32N 35°24' E 139°45'0 0.0
2016-Aug-21 12:32N 35°24' E 139°45'0 0.0
2016-Aug-21 11:32N 35°24' E 139°45'0 0.0
2016-Aug-21 10:29N 35°24' E 139°45'0 0.0
2016-Aug-21 09:32N 35°24' E 139°45'0 0.3
2016-Aug-21 08:33N 35°24' E 139°44'1111.2
2016-Aug-21 07:33N 35°12' E 139°47'59 7.2
2016-Aug-20 23:27N 35°36' E 140°52'1110.5
2016-Aug-20 22:25N 35°47' E 140°54'1012.0
2016-Aug-20 21:33N 35°55' E 140°46'4 1.8
2016-Aug-20 19:33N 35°57' E 140°42'0 0.0
2016-Aug-20 18:21N 35°57' E 140°42'0 0.0
2016-Aug-20 17:27N 35°57' E 140°42'0 0.0
2016-Aug-20 16:27N 35°57' E 140°42'0 0.0
2016-Aug-20 15:24N 35°57' E 140°42'0 0.0
2016-Aug-20 14:06N 35°57' E 140°42'0 0.0
2016-Aug-20 13:27N 35°57' E 140°42'0 0.0
2016-Aug-20 12:30N 35°57' E 140°42'0 0.0
2016-Aug-20 09:33N 35°57' E 140°42'0 0.0
2016-Aug-20 08:12N 35°57' E 140°42'0 0.0
2016-Aug-20 07:30N 35°57' E 140°42'2 0.5
2016-Aug-20 04:34N 35°55' E 140°42'1 0.3
2016-Aug-20 00:30N 35°55' E 140°41'0 0.0
2016-Aug-19 23:10N 35°55' E 140°41'3 4.2
2016-Aug-19 22:33N 35°57' E 140°42'0 0.3
2016-Aug-19 21:28N 35°57' E 140°42'  

Dump ship's entire track history